sensor_id;sensor_type;location;lat;lon;timestamp;P1;durP1;ratioP1;P2;durP2;ratioP2
53688;SDS011;39583;54.682;30.662;2023-08-20T06:30:38;10.38;;;6.95;;
53688;SDS011;39583;54.682;30.662;2023-08-20T06:33:06;10.05;;;6.35;;
53688;SDS011;39583;54.682;30.662;2023-08-20T06:35:33;7.80;;;6.25;;
53688;SDS011;39583;54.682;30.662;2023-08-20T06:38:01;9.90;;;6.63;;
53688;SDS011;39583;54.682;30.662;2023-08-20T06:40:29;10.77;;;7.40;;
53688;SDS011;39583;54.682;30.662;2023-08-20T06:42:57;7.07;;;6.43;;
53688;SDS011;39583;54.682;30.662;2023-08-20T06:45:24;8.95;;;6.82;;
53688;SDS011;39583;54.682;30.662;2023-08-20T06:47:51;11.77;;;7.15;;
53688;SDS011;39583;54.682;30.662;2023-08-20T06:50:18;8.43;;;6.75;;
53688;SDS011;39583;54.682;30.662;2023-08-20T06:52:46;10.55;;;5.93;;
53688;SDS011;39583;54.682;30.662;2023-08-20T06:55:13;7.38;;;6.30;;
53688;SDS011;39583;54.682;30.662;2023-08-20T06:57:40;8.25;;;6.68;;
53688;SDS011;39583;54.682;30.662;2023-08-20T07:00:08;7.28;;;6.55;;
53688;SDS011;39583;54.682;30.662;2023-08-20T07:02:35;7.68;;;6.22;;
53688;SDS011;39583;54.682;30.662;2023-08-20T07:05:03;7.63;;;6.50;;
53688;SDS011;39583;54.682;30.662;2023-08-20T07:07:30;8.32;;;5.97;;
53688;SDS011;39583;54.682;30.662;2023-08-20T07:09:57;8.15;;;6.28;;
53688;SDS011;39583;54.682;30.662;2023-08-20T07:12:25;9.23;;;6.80;;
53688;SDS011;39583;54.682;30.662;2023-08-20T07:14:52;8.82;;;6.35;;
53688;SDS011;39583;54.682;30.662;2023-08-20T07:17:19;10.93;;;6.30;;
53688;SDS011;39583;54.682;30.662;2023-08-20T07:19:47;8.75;;;5.78;;
53688;SDS011;39583;54.682;30.662;2023-08-20T07:22:14;6.38;;;5.78;;
53688;SDS011;39583;54.682;30.662;2023-08-20T07:24:41;8.43;;;6.22;;
53688;SDS011;39583;54.682;30.662;2023-08-20T07:27:08;8.20;;;6.18;;
53688;SDS011;39583;54.682;30.662;2023-08-20T07:29:41;8.73;;;5.90;;
53688;SDS011;39583;54.682;30.662;2023-08-20T07:32:08;9.98;;;5.88;;
53688;SDS011;39583;54.682;30.662;2023-08-20T07:34:35;9.38;;;5.72;;
53688;SDS011;39583;54.682;30.662;2023-08-20T07:37:03;7.70;;;5.90;;
53688;SDS011;39583;54.682;30.662;2023-08-20T07:39:31;7.97;;;6.18;;
53688;SDS011;39583;54.682;30.662;2023-08-20T07:41:59;10.02;;;6.28;;
53688;SDS011;39583;54.682;30.662;2023-08-20T07:44:27;6.60;;;5.90;;
53688;SDS011;39583;54.682;30.662;2023-08-20T07:46:55;7.18;;;5.80;;
53688;SDS011;39583;54.682;30.662;2023-08-20T07:49:22;6.43;;;5.20;;
53688;SDS011;39583;54.682;30.662;2023-08-20T07:51:50;6.68;;;5.65;;
53688;SDS011;39583;54.682;30.662;2023-08-20T07:54:19;9.35;;;5.72;;
53688;SDS011;39583;54.682;30.662;2023-08-20T07:56:46;7.03;;;5.25;;
53688;SDS011;39583;54.682;30.662;2023-08-20T07:59:13;8.48;;;5.30;;
53688;SDS011;39583;54.682;30.662;2023-08-20T08:01:41;5.50;;;4.95;;
53688;SDS011;39583;54.682;30.662;2023-08-20T08:04:08;7.82;;;4.80;;
53688;SDS011;39583;54.682;30.662;2023-08-20T08:06:35;5.55;;;4.45;;
53688;SDS011;39583;54.682;30.662;2023-08-20T08:09:19;6.30;;;4.82;;
53688;SDS011;39583;54.682;30.662;2023-08-20T08:12:04;6.78;;;4.68;;
53688;SDS011;39583;54.682;30.662;2023-08-20T08:14:32;5.05;;;4.57;;
53688;SDS011;39583;54.682;30.662;2023-08-20T08:16:59;10.95;;;4.82;;
53688;SDS011;39583;54.682;30.662;2023-08-20T08:19:26;8.38;;;4.72;;
53688;SDS011;39583;54.682;30.662;2023-08-20T08:21:54;6.18;;;4.63;;
53688;SDS011;39583;54.682;30.662;2023-08-20T08:24:21;5.95;;;3.97;;
53688;SDS011;39583;54.682;30.662;2023-08-20T08:26:48;8.30;;;4.20;;
53688;SDS011;39583;54.682;30.662;2023-08-20T08:29:16;6.18;;;4.20;;
53688;SDS011;39583;54.682;30.662;2023-08-20T08:31:43;6.07;;;4.03;;
53688;SDS011;39583;54.682;30.662;2023-08-20T08:34:10;9.65;;;4.63;;
53688;SDS011;39583;54.682;30.662;2023-08-20T08:36:38;6.72;;;3.63;;
53688;SDS011;39583;54.682;30.662;2023-08-20T08:39:05;7.85;;;3.83;;
53688;SDS011;39583;54.682;30.662;2023-08-20T08:41:35;4.53;;;3.38;;
53688;SDS011;39583;54.682;30.662;2023-08-20T08:44:06;3.22;;;2.85;;
53688;SDS011;39583;54.682;30.662;2023-08-20T08:46:36;6.57;;;3.92;;
53688;SDS011;39583;54.682;30.662;2023-08-20T08:49:05;6.05;;;3.65;;
53688;SDS011;39583;54.682;30.662;2023-08-20T08:51:32;5.07;;;3.60;;
53688;SDS011;39583;54.682;30.662;2023-08-20T08:54:02;4.82;;;3.80;;
53688;SDS011;39583;54.682;30.662;2023-08-20T08:56:30;4.15;;;3.75;;
53688;SDS011;39583;54.682;30.662;2023-08-20T08:58:58;6.72;;;3.53;;
53688;SDS011;39583;54.682;30.662;2023-08-20T09:01:25;8.98;;;3.50;;
53688;SDS011;39583;54.682;30.662;2023-08-20T09:03:53;5.85;;;3.92;;
53688;SDS011;39583;54.682;30.662;2023-08-20T09:06:20;4.55;;;3.60;;
53688;SDS011;39583;54.682;30.662;2023-08-20T09:08:48;7.32;;;4.10;;
53688;SDS011;39583;54.682;30.662;2023-08-20T09:11:15;7.30;;;4.05;;
53688;SDS011;39583;54.682;30.662;2023-08-20T09:13:42;5.40;;;3.90;;
53688;SDS011;39583;54.682;30.662;2023-08-20T09:16:11;7.30;;;4.15;;
53688;SDS011;39583;54.682;30.662;2023-08-20T09:18:45;7.05;;;4.20;;
53688;SDS011;39583;54.682;30.662;2023-08-20T09:21:13;7.22;;;4.10;;
53688;SDS011;39583;54.682;30.662;2023-08-20T09:23:40;5.85;;;4.10;;
53688;SDS011;39583;54.682;30.662;2023-08-20T09:28:45;4.85;;;3.97;;
53688;SDS011;39583;54.682;30.662;2023-08-20T09:31:13;4.55;;;4.15;;
53688;SDS011;39583;54.682;30.662;2023-08-20T09:33:59;6.55;;;3.90;;
53688;SDS011;39583;54.682;30.662;2023-08-20T09:36:31;6.10;;;3.75;;
53688;SDS011;39583;54.682;30.662;2023-08-20T09:39:02;7.90;;;3.65;;
53688;SDS011;39583;54.682;30.662;2023-08-20T09:41:30;4.35;;;3.78;;
53688;SDS011;39583;54.682;30.662;2023-08-20T09:44:00;4.07;;;3.67;;
53688;SDS011;39583;54.682;30.662;2023-08-20T09:46:31;7.78;;;3.85;;
53688;SDS011;39583;54.682;30.662;2023-08-20T09:49:01;5.40;;;3.80;;
53688;SDS011;39583;54.682;30.662;2023-08-20T09:51:32;7.07;;;3.33;;
53688;SDS011;39583;54.682;30.662;2023-08-20T09:54:03;5.35;;;3.92;;
53688;SDS011;39583;54.682;30.662;2023-08-20T09:56:34;6.82;;;4.30;;
53688;SDS011;39583;54.682;30.662;2023-08-20T09:59:06;5.18;;;3.85;;
53688;SDS011;39583;54.682;30.662;2023-08-20T10:01:34;5.97;;;5.35;;
53688;SDS011;39583;54.682;30.662;2023-08-20T10:04:02;5.65;;;4.30;;
53688;SDS011;39583;54.682;30.662;2023-08-20T10:06:31;7.50;;;4.30;;
53688;SDS011;39583;54.682;30.662;2023-08-20T10:08:59;6.50;;;4.53;;
53688;SDS011;39583;54.682;30.662;2023-08-20T10:11:27;6.95;;;4.60;;
53688;SDS011;39583;54.682;30.662;2023-08-20T10:13:55;6.95;;;4.57;;
53688;SDS011;39583;54.682;30.662;2023-08-20T10:16:22;5.60;;;4.25;;
53688;SDS011;39583;54.682;30.662;2023-08-20T10:18:51;6.15;;;4.22;;
53688;SDS011;39583;54.682;30.662;2023-08-20T10:21:19;9.90;;;4.60;;
53688;SDS011;39583;54.682;30.662;2023-08-20T10:23:51;7.45;;;4.40;;
53688;SDS011;39583;54.682;30.662;2023-08-20T10:26:20;6.97;;;4.05;;
53688;SDS011;39583;54.682;30.662;2023-08-20T10:28:48;5.60;;;4.55;;
53688;SDS011;39583;54.682;30.662;2023-08-20T10:31:16;6.90;;;4.85;;
53688;SDS011;39583;54.682;30.662;2023-08-20T10:36:15;5.70;;;4.45;;
53688;SDS011;39583;54.682;30.662;2023-08-20T10:38:45;9.25;;;4.45;;
53688;SDS011;39583;54.682;30.662;2023-08-20T10:41:12;8.05;;;4.68;;
53688;SDS011;39583;54.682;30.662;2023-08-20T10:43:46;7.90;;;5.07;;
53688;SDS011;39583;54.682;30.662;2023-08-20T10:46:16;8.18;;;5.05;;
53688;SDS011;39583;54.682;30.662;2023-08-20T10:48:52;5.50;;;4.22;;
53688;SDS011;39583;54.682;30.662;2023-08-20T10:56:46;7.38;;;3.55;;
53688;SDS011;39583;54.682;30.662;2023-08-20T10:59:22;5.90;;;3.83;;
53688;SDS011;39583;54.682;30.662;2023-08-20T11:01:52;9.70;;;4.93;;
53688;SDS011;39583;54.682;30.662;2023-08-20T11:04:28;13.68;;;5.22;;
53688;SDS011;39583;54.682;30.662;2023-08-20T11:06:59;83.95;;;7.40;;
53688;SDS011;39583;54.682;30.662;2023-08-20T11:09:28;28.88;;;5.70;;
53688;SDS011;39583;54.682;30.662;2023-08-20T11:11:56;11.73;;;5.03;;
53688;SDS011;39583;54.682;30.662;2023-08-20T11:14:25;8.18;;;4.70;;
53688;SDS011;39583;54.682;30.662;2023-08-20T11:16:52;7.78;;;5.22;;
53688;SDS011;39583;54.682;30.662;2023-08-20T11:19:20;9.95;;;4.68;;
53688;SDS011;39583;54.682;30.662;2023-08-20T11:21:49;7.28;;;3.95;;
53688;SDS011;39583;54.682;30.662;2023-08-20T11:24:17;10.02;;;4.97;;
53688;SDS011;39583;54.682;30.662;2023-08-20T11:26:46;5.65;;;4.65;;
53688;SDS011;39583;54.682;30.662;2023-08-20T11:29:15;6.45;;;4.05;;
53688;SDS011;39583;54.682;30.662;2023-08-20T11:31:49;7.30;;;4.35;;
53688;SDS011;39583;54.682;30.662;2023-08-20T11:34:20;5.60;;;4.00;;
53688;SDS011;39583;54.682;30.662;2023-08-20T11:36:48;5.03;;;3.83;;
53688;SDS011;39583;54.682;30.662;2023-08-20T11:39:16;6.60;;;4.40;;
53688;SDS011;39583;54.682;30.662;2023-08-20T11:41:44;9.93;;;3.97;;
53688;SDS011;39583;54.682;30.662;2023-08-20T11:44:18;5.63;;;4.20;;
53688;SDS011;39583;54.682;30.662;2023-08-20T11:46:47;7.88;;;4.50;;
53688;SDS011;39583;54.682;30.662;2023-08-20T11:49:15;5.32;;;3.17;;
53688;SDS011;39583;54.682;30.662;2023-08-20T11:51:43;6.40;;;3.90;;
53688;SDS011;39583;54.682;30.662;2023-08-20T11:54:14;4.75;;;3.58;;
53688;SDS011;39583;54.682;30.662;2023-08-20T11:56:43;4.28;;;3.50;;
53688;SDS011;39583;54.682;30.662;2023-08-20T11:59:12;7.53;;;3.80;;
53688;SDS011;39583;54.682;30.662;2023-08-20T12:01:41;8.90;;;5.30;;
53688;SDS011;39583;54.682;30.662;2023-08-20T12:04:09;7.28;;;4.63;;
53688;SDS011;39583;54.682;30.662;2023-08-20T12:06:37;6.57;;;3.83;;
53688;SDS011;39583;54.682;30.662;2023-08-20T12:09:18;6.88;;;4.00;;
53688;SDS011;39583;54.682;30.662;2023-08-20T12:11:52;6.30;;;3.75;;
53688;SDS011;39583;54.682;30.662;2023-08-20T12:14:23;9.32;;;4.00;;
53688;SDS011;39583;54.682;30.662;2023-08-20T12:16:50;4.47;;;3.50;;
53688;SDS011;39583;54.682;30.662;2023-08-20T12:19:18;6.25;;;3.40;;
53688;SDS011;39583;54.682;30.662;2023-08-20T12:21:45;4.43;;;3.28;;
53688;SDS011;39583;54.682;30.662;2023-08-20T12:24:13;3.70;;;2.75;;
53688;SDS011;39583;54.682;30.662;2023-08-20T12:26:40;3.72;;;2.30;;
53688;SDS011;39583;54.682;30.662;2023-08-20T12:29:08;3.08;;;2.20;;
53688;SDS011;39583;54.682;30.662;2023-08-20T12:31:35;1.98;;;1.77;;
53688;SDS011;39583;54.682;30.662;2023-08-20T12:34:02;6.00;;;2.50;;
53688;SDS011;39583;54.682;30.662;2023-08-20T12:36:30;3.10;;;2.10;;
53688;SDS011;39583;54.682;30.662;2023-08-20T12:38:57;2.90;;;2.20;;
53688;SDS011;39583;54.682;30.662;2023-08-20T12:41:24;4.35;;;2.58;;
53688;SDS011;39583;54.682;30.662;2023-08-20T12:43:52;2.65;;;2.10;;
53688;SDS011;39583;54.682;30.662;2023-08-20T12:46:19;4.15;;;2.20;;
53688;SDS011;39583;54.682;30.662;2023-08-20T12:48:47;3.60;;;2.30;;
53688;SDS011;39583;54.682;30.662;2023-08-20T12:51:16;6.50;;;5.22;;
53688;SDS011;39583;54.682;30.662;2023-08-20T12:53:44;5.95;;;4.47;;
53688;SDS011;39583;54.682;30.662;2023-08-20T12:56:12;4.18;;;3.42;;
53688;SDS011;39583;54.682;30.662;2023-08-20T12:58:40;3.80;;;2.75;;
53688;SDS011;39583;54.682;30.662;2023-08-20T13:01:07;3.03;;;2.70;;
53688;SDS011;39583;54.682;30.662;2023-08-20T13:03:35;3.55;;;2.70;;
53688;SDS011;39583;54.682;30.662;2023-08-20T13:06:03;10.52;;;2.60;;
53688;SDS011;39583;54.682;30.662;2023-08-20T13:08:31;6.68;;;2.85;;
53688;SDS011;39583;54.682;30.662;2023-08-20T13:10:58;4.10;;;2.33;;
53688;SDS011;39583;54.682;30.662;2023-08-20T13:13:28;4.38;;;2.40;;
53688;SDS011;39583;54.682;30.662;2023-08-20T13:15:58;6.45;;;2.95;;
53688;SDS011;39583;54.682;30.662;2023-08-20T13:18:26;5.47;;;3.03;;
53688;SDS011;39583;54.682;30.662;2023-08-20T13:20:55;7.68;;;3.20;;
53688;SDS011;39583;54.682;30.662;2023-08-20T13:23:22;3.80;;;2.47;;
53688;SDS011;39583;54.682;30.662;2023-08-20T13:25:50;3.80;;;2.50;;
53688;SDS011;39583;54.682;30.662;2023-08-20T13:28:18;6.35;;;2.45;;
53688;SDS011;39583;54.682;30.662;2023-08-20T13:30:46;4.65;;;2.50;;
53688;SDS011;39583;54.682;30.662;2023-08-20T13:33:13;2.90;;;2.30;;
53688;SDS011;39583;54.682;30.662;2023-08-20T13:35:41;6.60;;;2.50;;
53688;SDS011;39583;54.682;30.662;2023-08-20T13:38:09;2.45;;;2.25;;
53688;SDS011;39583;54.682;30.662;2023-08-20T13:40:36;2.95;;;2.65;;
53688;SDS011;39583;54.682;30.662;2023-08-20T13:43:04;5.07;;;2.58;;
53688;SDS011;39583;54.682;30.662;2023-08-20T13:45:31;2.50;;;2.30;;
53688;SDS011;39583;54.682;30.662;2023-08-20T13:47:59;4.30;;;2.65;;
53688;SDS011;39583;54.682;30.662;2023-08-20T13:50:26;3.03;;;2.72;;
53688;SDS011;39583;54.682;30.662;2023-08-20T13:52:54;4.28;;;2.80;;
53688;SDS011;39583;54.682;30.662;2023-08-20T13:55:24;4.55;;;2.63;;
53688;SDS011;39583;54.682;30.662;2023-08-20T13:57:51;5.93;;;2.65;;
53688;SDS011;39583;54.682;30.662;2023-08-20T14:00:19;3.50;;;2.97;;
53688;SDS011;39583;54.682;30.662;2023-08-20T14:02:46;3.80;;;2.60;;
53688;SDS011;39583;54.682;30.662;2023-08-20T14:05:14;2.85;;;2.30;;
53688;SDS011;39583;54.682;30.662;2023-08-20T14:07:41;3.58;;;2.45;;
53688;SDS011;39583;54.682;30.662;2023-08-20T14:10:08;3.20;;;2.20;;
53688;SDS011;39583;54.682;30.662;2023-08-20T14:12:37;3.72;;;2.30;;
53688;SDS011;39583;54.682;30.662;2023-08-20T14:15:07;2.67;;;2.47;;
53688;SDS011;39583;54.682;30.662;2023-08-20T14:17:35;3.15;;;2.60;;
53688;SDS011;39583;54.682;30.662;2023-08-20T14:20:04;5.93;;;2.63;;
53688;SDS011;39583;54.682;30.662;2023-08-20T14:22:33;3.15;;;2.33;;
53688;SDS011;39583;54.682;30.662;2023-08-20T14:25:01;2.42;;;2.08;;
53688;SDS011;39583;54.682;30.662;2023-08-20T14:27:30;2.83;;;2.22;;
53688;SDS011;39583;54.682;30.662;2023-08-20T14:29:57;9.60;;;8.65;;
53688;SDS011;39583;54.682;30.662;2023-08-20T14:32:25;5.10;;;2.85;;
53688;SDS011;39583;54.682;30.662;2023-08-20T14:34:53;4.13;;;2.20;;
53688;SDS011;39583;54.682;30.662;2023-08-20T14:37:20;3.70;;;1.75;;
53688;SDS011;39583;54.682;30.662;2023-08-20T14:39:49;5.97;;;2.72;;
53688;SDS011;39583;54.682;30.662;2023-08-20T14:42:17;3.28;;;2.15;;
53688;SDS011;39583;54.682;30.662;2023-08-20T14:44:44;6.20;;;2.28;;
53688;SDS011;39583;54.682;30.662;2023-08-20T14:47:11;4.82;;;2.30;;
53688;SDS011;39583;54.682;30.662;2023-08-20T14:49:39;2.38;;;1.70;;
53688;SDS011;39583;54.682;30.662;2023-08-20T14:52:06;2.97;;;1.85;;
53688;SDS011;39583;54.682;30.662;2023-08-20T14:54:45;8.93;;;2.22;;
53688;SDS011;39583;54.682;30.662;2023-08-20T14:57:13;2.83;;;1.95;;
53688;SDS011;39583;54.682;30.662;2023-08-20T14:59:42;3.13;;;1.90;;
53688;SDS011;39583;54.682;30.662;2023-08-20T15:02:10;2.00;;;1.42;;
53688;SDS011;39583;54.682;30.662;2023-08-20T15:04:37;2.33;;;1.85;;
53688;SDS011;39583;54.682;30.662;2023-08-20T15:07:04;4.05;;;2.13;;
53688;SDS011;39583;54.682;30.662;2023-08-20T15:09:32;2.78;;;1.80;;
53688;SDS011;39583;54.682;30.662;2023-08-20T15:11:59;3.42;;;2.20;;
53688;SDS011;39583;54.682;30.662;2023-08-20T15:14:27;6.85;;;1.70;;
53688;SDS011;39583;54.682;30.662;2023-08-20T15:16:54;2.92;;;1.90;;
53688;SDS011;39583;54.682;30.662;2023-08-20T15:19:21;3.90;;;2.08;;
53688;SDS011;39583;54.682;30.662;2023-08-20T15:21:49;2.17;;;1.95;;
53688;SDS011;39583;54.682;30.662;2023-08-20T15:24:16;3.38;;;2.05;;
53688;SDS011;39583;54.682;30.662;2023-08-20T15:26:43;6.45;;;3.38;;
53688;SDS011;39583;54.682;30.662;2023-08-20T15:29:11;4.47;;;2.10;;
53688;SDS011;39583;54.682;30.662;2023-08-20T15:31:39;3.15;;;1.90;;
53688;SDS011;39583;54.682;30.662;2023-08-20T15:34:07;2.60;;;1.80;;
53688;SDS011;39583;54.682;30.662;2023-08-20T15:36:34;5.32;;;1.85;;
53688;SDS011;39583;54.682;30.662;2023-08-20T15:39:02;3.75;;;1.95;;
53688;SDS011;39583;54.682;30.662;2023-08-20T15:41:30;3.10;;;1.90;;
53688;SDS011;39583;54.682;30.662;2023-08-20T15:43:57;2.55;;;1.98;;
53688;SDS011;39583;54.682;30.662;2023-08-20T15:46:24;3.05;;;2.30;;
53688;SDS011;39583;54.682;30.662;2023-08-20T15:48:52;3.40;;;2.20;;
53688;SDS011;39583;54.682;30.662;2023-08-20T15:51:20;2.85;;;2.38;;
53688;SDS011;39583;54.682;30.662;2023-08-20T15:53:47;2.75;;;2.40;;
53688;SDS011;39583;54.682;30.662;2023-08-20T15:56:15;5.35;;;2.55;;
53688;SDS011;39583;54.682;30.662;2023-08-20T15:58:43;4.97;;;2.50;;
53688;SDS011;39583;54.682;30.662;2023-08-20T16:01:10;6.00;;;2.45;;
53688;SDS011;39583;54.682;30.662;2023-08-20T16:03:38;4.18;;;2.25;;
53688;SDS011;39583;54.682;30.662;2023-08-20T16:06:06;4.05;;;2.65;;
53688;SDS011;39583;54.682;30.662;2023-08-20T16:08:33;3.55;;;2.22;;
53688;SDS011;39583;54.682;30.662;2023-08-20T16:11:01;2.67;;;2.05;;
53688;SDS011;39583;54.682;30.662;2023-08-20T16:13:30;6.20;;;2.88;;
53688;SDS011;39583;54.682;30.662;2023-08-20T16:15:57;4.35;;;3.35;;
53688;SDS011;39583;54.682;30.662;2023-08-20T16:18:25;3.40;;;2.63;;
53688;SDS011;39583;54.682;30.662;2023-08-20T16:20:52;3.92;;;2.25;;
53688;SDS011;39583;54.682;30.662;2023-08-20T16:23:19;4.35;;;2.83;;
53688;SDS011;39583;54.682;30.662;2023-08-20T16:25:47;3.92;;;2.30;;
53688;SDS011;39583;54.682;30.662;2023-08-20T16:28:14;5.53;;;2.40;;
53688;SDS011;39583;54.682;30.662;2023-08-20T16:30:41;2.72;;;2.30;;
53688;SDS011;39583;54.682;30.662;2023-08-20T16:33:09;3.15;;;2.47;;
53688;SDS011;39583;54.682;30.662;2023-08-20T16:35:39;3.35;;;2.35;;
53688;SDS011;39583;54.682;30.662;2023-08-20T16:38:08;2.95;;;2.45;;
53688;SDS011;39583;54.682;30.662;2023-08-20T16:40:36;3.53;;;2.33;;
53688;SDS011;39583;54.682;30.662;2023-08-20T16:43:04;2.90;;;2.60;;
53688;SDS011;39583;54.682;30.662;2023-08-20T16:45:32;3.20;;;2.50;;
53688;SDS011;39583;54.682;30.662;2023-08-20T16:48:00;2.30;;;2.10;;
53688;SDS011;39583;54.682;30.662;2023-08-20T16:50:27;4.28;;;2.63;;
53688;SDS011;39583;54.682;30.662;2023-08-20T16:52:56;4.30;;;2.75;;
53688;SDS011;39583;54.682;30.662;2023-08-20T16:55:26;4.13;;;2.42;;
53688;SDS011;39583;54.682;30.662;2023-08-20T16:57:54;5.38;;;2.60;;
53688;SDS011;39583;54.682;30.662;2023-08-20T17:00:21;6.50;;;2.75;;
53688;SDS011;39583;54.682;30.662;2023-08-20T17:02:49;5.88;;;2.42;;
53688;SDS011;39583;54.682;30.662;2023-08-20T17:05:16;5.60;;;2.67;;
53688;SDS011;39583;54.682;30.662;2023-08-20T17:07:44;3.85;;;2.50;;
53688;SDS011;39583;54.682;30.662;2023-08-20T17:10:11;8.50;;;2.80;;
53688;SDS011;39583;54.682;30.662;2023-08-20T17:12:39;4.00;;;2.42;;
53688;SDS011;39583;54.682;30.662;2023-08-20T17:15:07;4.47;;;3.13;;
53688;SDS011;39583;54.682;30.662;2023-08-20T17:17:36;4.20;;;2.35;;
53688;SDS011;39583;54.682;30.662;2023-08-20T17:20:04;5.13;;;2.90;;
53688;SDS011;39583;54.682;30.662;2023-08-20T17:22:34;4.03;;;2.70;;
53688;SDS011;39583;54.682;30.662;2023-08-20T17:25:02;4.38;;;3.08;;
53688;SDS011;39583;54.682;30.662;2023-08-20T17:27:30;6.45;;;3.33;;
53688;SDS011;39583;54.682;30.662;2023-08-20T17:29:57;6.50;;;3.85;;
53688;SDS011;39583;54.682;30.662;2023-08-20T17:32:25;4.43;;;3.60;;
53688;SDS011;39583;54.682;30.662;2023-08-20T17:34:52;3.25;;;2.95;;
53688;SDS011;39583;54.682;30.662;2023-08-20T17:37:20;4.88;;;3.20;;
53688;SDS011;39583;54.682;30.662;2023-08-20T17:39:48;4.80;;;2.97;;
53688;SDS011;39583;54.682;30.662;2023-08-20T17:42:16;5.72;;;2.72;;
53688;SDS011;39583;54.682;30.662;2023-08-20T17:44:44;6.63;;;2.97;;
53688;SDS011;39583;54.682;30.662;2023-08-20T17:47:11;4.53;;;3.80;;
53688;SDS011;39583;54.682;30.662;2023-08-20T17:49:38;5.03;;;3.22;;
53688;SDS011;39583;54.682;30.662;2023-08-20T17:52:06;9.75;;;3.33;;
53688;SDS011;39583;54.682;30.662;2023-08-20T17:54:33;4.68;;;2.83;;
53688;SDS011;39583;54.682;30.662;2023-08-20T17:57:01;10.43;;;3.22;;
53688;SDS011;39583;54.682;30.662;2023-08-20T17:59:29;9.70;;;3.60;;
53688;SDS011;39583;54.682;30.662;2023-08-20T18:01:57;4.00;;;3.05;;
53688;SDS011;39583;54.682;30.662;2023-08-20T18:04:25;5.47;;;3.25;;
53688;SDS011;39583;54.682;30.662;2023-08-20T18:06:53;3.92;;;3.17;;
53688;SDS011;39583;54.682;30.662;2023-08-20T18:09:20;3.83;;;3.30;;
53688;SDS011;39583;54.682;30.662;2023-08-20T18:11:47;8.68;;;3.50;;
53688;SDS011;39583;54.682;30.662;2023-08-20T18:14:15;5.63;;;3.65;;
53688;SDS011;39583;54.682;30.662;2023-08-20T18:16:42;9.65;;;3.92;;
53688;SDS011;39583;54.682;30.662;2023-08-20T18:19:10;5.53;;;3.42;;
53688;SDS011;39583;54.682;30.662;2023-08-20T18:21:37;8.68;;;2.80;;
53688;SDS011;39583;54.682;30.662;2023-08-20T18:24:04;7.00;;;3.15;;
53688;SDS011;39583;54.682;30.662;2023-08-20T18:26:32;3.70;;;2.83;;
53688;SDS011;39583;54.682;30.662;2023-08-20T18:28:59;4.78;;;3.47;;
53688;SDS011;39583;54.682;30.662;2023-08-20T18:31:27;6.20;;;3.40;;
53688;SDS011;39583;54.682;30.662;2023-08-20T18:33:55;4.00;;;3.03;;
53688;SDS011;39583;54.682;30.662;2023-08-20T18:36:22;13.32;;;3.30;;
53688;SDS011;39583;54.682;30.662;2023-08-20T18:38:52;6.25;;;3.55;;
